Grandview on Hudson, New York
Current Conditions -  °F | °C
As of 9:56 PM on Monday 22 Dec 2014 (Local Time) from KHPN Reporting Station
Haze Haze  
Wind Chill: 37°   Ceiling: 700
Heat Index: 42°   Visibility: 5mi
Dew Point: 40°   Wind: 8mph
Humidity: 92%   Direction: 100°E
Pressure: 30.2"   Gusts: 16mph
Location:  41.0938°N, 73.9254°W
Report Text: KHPN 230256Z 10007G14KT 5SM BR OVC007 06/04 A3020 RMK AO2 DZE0157RAB0157E52 CIG 005V009 SLP233 P0000 60000 T00560044 55004
Loading
Personal Weather Stations






























Interactive Weather Map New forecast layout! Learn more

10-Day Weather Forecast

Advertisements
Track Severe Weather on mobile